TimeMST,TemperatureF,Dew PointF,Humidity,Sea Level PressureIn,VisibilityMPH,Wind Direction,Wind SpeedMPH,Gust SpeedMPH,PrecipitationIn,Events,Conditions,WindDirDegrees,DateUTC
12:15 AM,16.2,4.3,60,30.25,10.0,WNW,6.9,-,N/A,,Clear,290,2014-01-18 07:15:00
12:35 AM,16.0,3.2,57,30.26,10.0,NW,5.8,-,N/A,,Clear,320,2014-01-18 07:35:00
12:55 AM,12.9,2.7,64,30.26,10.0,NW,5.8,-,N/A,,Clear,320,2014-01-18 07:55:00
1:15 AM,14.4,2.5,59,30.25,10.0,North,3.5,-,N/A,,Clear,360,2014-01-18 08:15:00
1:35 AM,15.3,3.0,58,30.24,10.0,NNW,3.5,-,N/A,,Clear,340,2014-01-18 08:35:00
1:55 AM,10.4,1.6,68,30.25,10.0,WNW,5.8,-,N/A,,Clear,290,2014-01-18 08:55:00
2:15 AM,13.3,2.8,63,30.26,10.0,NNW,6.9,-,N/A,,Clear,330,2014-01-18 09:15:00
2:35 AM,12.6,2.3,64,30.25,10.0,NNW,5.8,-,N/A,,Clear,330,2014-01-18 09:35:00
2:55 AM,11.7,2.8,68,30.26,10.0,NW,9.2,-,N/A,,Clear,310,2014-01-18 09:55:00
3:15 AM,14.7,3.4,61,30.26,10.0,NW,6.9,-,N/A,,Clear,320,2014-01-18 10:15:00
3:35 AM,17.1,5.5,61,30.26,10.0,NW,8.1,-,N/A,,Clear,310,2014-01-18 10:35:00
3:55 AM,12.4,1.8,63,30.25,10.0,NNW,6.9,-,N/A,,Clear,330,2014-01-18 10:55:00
4:15 AM,11.8,2.5,66,30.25,10.0,NW,5.8,-,N/A,,Clear,320,2014-01-18 11:15:00
4:35 AM,14.0,4.3,65,30.25,10.0,NW,9.2,-,N/A,,Clear,310,2014-01-18 11:35:00
4:55 AM,13.8,4.1,65,30.26,10.0,NW,8.1,-,N/A,,Clear,310,2014-01-18 11:55:00
5:15 AM,13.5,4.1,66,30.26,10.0,NW,8.1,-,N/A,,Clear,310,2014-01-18 12:15:00
5:35 AM,12.0,3.6,69,30.26,10.0,NW,8.1,-,N/A,,Clear,320,2014-01-18 12:35:00
5:55 AM,12.9,4.8,70,30.26,10.0,NW,6.9,-,N/A,,Clear,320,2014-01-18 12:55:00
6:15 AM,14.4,4.8,66,30.26,10.0,NW,8.1,-,N/A,,Clear,320,2014-01-18 13:15:00
6:35 AM,15.1,5.0,64,30.27,10.0,NW,9.2,-,N/A,,Clear,310,2014-01-18 13:35:00
6:55 AM,15.4,5.2,64,30.28,10.0,NW,6.9,-,N/A,,Clear,310,2014-01-18 13:55:00
7:15 AM,14.0,5.0,67,30.28,10.0,NW,6.9,-,N/A,,Clear,310,2014-01-18 14:15:00
7:35 AM,15.4,5.9,66,30.29,10.0,NW,5.8,-,N/A,,Clear,310,2014-01-18 14:35:00
7:55 AM,14.7,4.8,65,30.29,10.0,NW,5.8,-,N/A,,Clear,320,2014-01-18 14:55:00
8:15 AM,17.6,5.7,60,30.30,10.0,NW,3.5,-,N/A,,Clear,320,2014-01-18 15:15:00
8:35 AM,22.3,7.5,53,30.30,10.0,NW,4.6,-,N/A,,Clear,320,2014-01-18 15:35:00
8:55 AM,25.0,7.9,48,30.32,10.0,NW,5.8,-,N/A,,Clear,320,2014-01-18 15:55:00
9:15 AM,26.4,8.2,46,30.33,10.0,NW,5.8,-,N/A,,Clear,310,2014-01-18 16:15:00
9:35 AM,30.0,8.4,40,30.33,10.0,Calm,Calm,-,N/A,,Clear,0,2014-01-18 16:35:00
9:55 AM,33.1,8.4,36,30.33,10.0,NW,4.6,-,N/A,,Clear,320,2014-01-18 16:55:00
10:15 AM,36.3,8.8,32,30.33,10.0,NW,5.8,-,N/A,,Clear,310,2014-01-18 17:15:00
10:35 AM,39.4,9.1,29,30.33,10.0,NW,5.8,-,N/A,,Clear,320,2014-01-18 17:35:00
10:55 AM,43.2,8.8,25,30.32,10.0,NNW,6.9,-,N/A,,Clear,330,2014-01-18 17:55:00
11:15 AM,46.6,6.6,20,30.30,10.0,North,5.8,-,N/A,,Clear,350,2014-01-18 18:15:00
11:35 AM,48.9,6.4,18,30.30,10.0,NNW,8.1,-,N/A,,Clear,340,2014-01-18 18:35:00
11:55 AM,49.6,5.9,17,30.29,10.0,NNW,5.8,-,N/A,,Clear,330,2014-01-18 18:55:00
12:15 PM,50.7,5.9,16,30.28,10.0,North,8.1,-,N/A,,Clear,360,2014-01-18 19:15:00
12:35 PM,52.5,6.1,15,30.27,10.0,North,8.1,-,N/A,,Clear,350,2014-01-18 19:35:00
12:55 PM,53.8,7.0,15,30.26,10.0,NW,11.5,16.1,N/A,,Clear,320,2014-01-18 19:55:00
1:15 PM,54.9,7.9,15,30.25,10.0,NNW,13.8,18.4,N/A,,Clear,330,2014-01-18 20:15:00
1:35 PM,55.2,8.4,15,30.24,10.0,North,17.3,20.7,N/A,,Clear,350,2014-01-18 20:35:00
1:55 PM,55.8,8.4,15,30.24,10.0,North,16.1,23.0,N/A,,Clear,360,2014-01-18 20:55:00
2:15 PM,55.4,7.9,15,30.24,10.0,North,13.8,18.4,N/A,,Clear,350,2014-01-18 21:15:00
2:35 PM,55.2,8.1,15,30.25,10.0,North,17.3,24.2,N/A,,Clear,360,2014-01-18 21:35:00
2:55 PM,54.9,7.7,15,30.26,10.0,North,17.3,21.9,N/A,,Clear,360,2014-01-18 21:55:00
3:15 PM,54.5,7.7,15,30.26,10.0,North,15.0,20.7,N/A,,Clear,360,2014-01-18 22:15:00
3:35 PM,54.1,7.5,15,30.26,10.0,North,12.7,-,N/A,,Clear,350,2014-01-18 22:35:00
3:55 PM,53.6,6.8,15,30.28,10.0,North,11.5,19.6,N/A,,Clear,360,2014-01-18 22:55:00
4:15 PM,52.7,6.8,16,30.28,10.0,North,13.8,-,N/A,,Clear,360,2014-01-18 23:15:00
4:35 PM,51.6,7.0,16,30.28,10.0,North,11.5,-,N/A,,Clear,360,2014-01-18 23:35:00
4:55 PM,50.0,7.7,18,30.28,10.0,North,9.2,-,N/A,,Clear,350,2014-01-18 23:55:00
5:15 PM,46.8,7.7,20,30.28,10.0,North,9.2,-,N/A,,Clear,350,2014-01-19 00:15:00
5:35 PM,38.5,6.3,26,30.29,10.0,NNW,6.9,-,N/A,,Clear,340,2014-01-19 00:35:00
5:55 PM,35.4,6.6,30,30.30,10.0,WNW,3.5,-,N/A,,Clear,300,2014-01-19 00:55:00
6:15 PM,37.2,8.1,30,30.31,10.0,WSW,3.5,-,N/A,,Clear,240,2014-01-19 01:15:00
6:35 PM,34.3,7.0,32,30.31,10.0,Calm,Calm,-,N/A,,Clear,0,2014-01-19 01:35:00
6:55 PM,32.0,6.4,34,30.31,10.0,NW,6.9,-,N/A,,Clear,320,2014-01-19 01:55:00
7:15 PM,32.7,7.3,35,30.32,10.0,WNW,5.8,-,N/A,,Clear,300,2014-01-19 02:15:00
7:35 PM,26.2,5.7,42,30.32,10.0,NW,3.5,-,N/A,,Clear,310,2014-01-19 02:35:00
7:55 PM,26.8,5.7,41,30.32,10.0,North,4.6,-,N/A,,Clear,360,2014-01-19 02:55:00
8:15 PM,26.6,6.6,43,30.32,10.0,Calm,Calm,-,N/A,,Clear,0,2014-01-19 03:15:00
8:35 PM,27.0,7.3,44,30.33,10.0,West,3.5,16.1,N/A,,Clear,270,2014-01-19 03:35:00
8:55 PM,23.4,5.5,47,30.33,10.0,Calm,Calm,-,N/A,,Clear,0,2014-01-19 03:55:00
9:15 PM,22.3,5.9,50,30.34,10.0,NNW,3.5,-,N/A,,Clear,340,2014-01-19 04:15:00
9:35 PM,20.3,5.4,52,30.35,10.0,WNW,9.2,-,N/A,,Clear,300,2014-01-19 04:35:00
9:55 PM,20.3,5.4,52,30.35,10.0,NNW,3.5,-,N/A,,Clear,340,2014-01-19 04:55:00
10:15 PM,20.5,5.9,53,30.35,10.0,NW,8.1,-,N/A,,Clear,320,2014-01-19 05:15:00
10:35 PM,20.8,5.4,51,30.36,10.0,NW,8.1,-,N/A,,Clear,310,2014-01-19 05:35:00
10:55 PM,23.0,5.9,48,30.36,10.0,WNW,8.1,-,N/A,,Clear,290,2014-01-19 05:55:00
11:15 PM,23.9,6.3,47,30.37,10.0,WNW,6.9,-,N/A,,Clear,300,2014-01-19 06:15:00
11:35 PM,19.6,5.5,55,30.37,10.0,North,3.5,-,N/A,,Clear,360,2014-01-19 06:35:00
11:55 PM,16.2,3.4,57,30.37,10.0,Calm,Calm,-,N/A,,Clear,0,2014-01-19 06:55:00